createdAt,value
2023-05-05T00:00:26.015Z,0
2023-05-05T00:01:38.000Z,0
2023-05-05T00:02:58.413Z,0
2023-05-05T00:04:14.596Z,0
2023-05-05T00:05:27.000Z,0
2023-05-05T00:06:46.995Z,0
2023-05-05T00:07:59.000Z,0
2023-05-05T00:09:15.000Z,0
2023-05-05T00:10:35.573Z,0
2023-05-05T00:11:51.771Z,0
2023-05-05T00:13:07.718Z,0
2023-05-05T00:14:23.913Z,0
2023-05-05T00:15:40.358Z,0
2023-05-05T00:16:55.572Z,0
2023-05-05T00:18:11.517Z,0
2023-05-05T00:19:27.958Z,0
2023-05-05T00:20:40.000Z,0
2023-05-05T00:21:56.000Z,0
2023-05-05T00:23:13.000Z,0
2023-05-05T00:24:29.000Z,0
2023-05-05T00:25:47.963Z,0
2023-05-05T00:26:59.000Z,0
2023-05-05T00:28:19.365Z,0
2023-05-05T00:29:32.000Z,0
2023-05-05T00:30:48.000Z,0
2023-05-05T00:32:07.955Z,0
2023-05-05T00:33:24.150Z,0
2023-05-05T00:34:36.000Z,0
2023-05-05T00:35:53.000Z,0
2023-05-05T00:37:09.000Z,0
2023-05-05T00:38:28.934Z,0
2023-05-05T00:39:41.000Z,0
2023-05-05T00:41:01.080Z,0
2023-05-05T00:42:14.000Z,0
2023-05-05T00:43:29.000Z,0
2023-05-05T00:44:45.000Z,0
2023-05-05T00:46:01.000Z,0
2023-05-05T00:47:17.000Z,0
2023-05-05T00:48:37.269Z,0
2023-05-05T00:49:53.708Z,0
2023-05-05T00:51:09.905Z,0
2023-05-05T00:52:21.000Z,0
2023-05-05T00:53:36.000Z,0
2023-05-05T00:54:53.000Z,0
2023-05-05T00:56:12.741Z,0
2023-05-05T00:57:28.921Z,0
2023-05-05T00:58:41.000Z,0
2023-05-05T00:59:57.000Z,0
2023-05-05T01:01:17.511Z,0
2023-05-05T01:02:30.000Z,0
2023-05-05T01:03:49.658Z,0
2023-05-05T01:05:02.000Z,0
2023-05-05T01:06:17.000Z,0
2023-05-05T01:07:37.515Z,0
2023-05-05T01:08:53.462Z,0
2023-05-05T01:10:09.909Z,0
2023-05-05T01:11:26.099Z,0
2023-05-05T01:12:42.048Z,0
2023-05-05T01:13:58.244Z,0
2023-05-05T01:15:14.439Z,0
2023-05-05T01:16:27.000Z,0
2023-05-05T01:17:43.000Z,0
2023-05-05T01:18:58.000Z,0
2023-05-05T01:20:13.000Z,0
2023-05-05T01:21:29.000Z,0
2023-05-05T01:22:44.000Z,0
2023-05-05T01:23:59.000Z,0
2023-05-05T01:25:14.000Z,0
2023-05-05T01:26:34.579Z,0
2023-05-05T01:27:47.000Z,0
2023-05-05T01:29:06.720Z,0
2023-05-05T01:30:19.000Z,0
2023-05-05T01:31:35.000Z,0
2023-05-05T01:32:52.000Z,0
2023-05-05T01:34:08.000Z,0
2023-05-05T01:35:24.000Z,0
2023-05-05T01:36:40.000Z,0
2023-05-05T01:38:00.338Z,0
2023-05-05T01:39:16.534Z,0
2023-05-05T01:40:29.000Z,0
2023-05-05T01:41:47.951Z,0
2023-05-05T01:43:00.000Z,0
2023-05-05T01:44:10.000Z,0
2023-05-05T01:44:20.326Z,0
2023-05-05T01:45:36.520Z,0
2023-05-05T01:46:49.000Z,0
2023-05-05T01:48:05.000Z,0
2023-05-05T01:49:25.110Z,0
2023-05-05T01:51:55.540Z,0
2023-05-05T01:53:07.000Z,0
2023-05-05T01:54:22.000Z,0
2023-05-05T01:55:38.000Z,0
2023-05-05T01:56:58.368Z,0
2023-05-05T01:58:14.571Z,0
2023-05-05T01:59:30.514Z,0
2023-05-05T02:00:43.000Z,0
2023-05-05T02:02:03.146Z,0
2023-05-05T02:03:15.000Z,0
2023-05-05T02:04:35.544Z,0
2023-05-05T02:05:48.000Z,0
2023-05-05T02:07:07.936Z,0
2023-05-05T02:08:20.000Z,0
2023-05-05T02:09:36.000Z,0
2023-05-05T02:10:51.000Z,0
2023-05-05T02:12:11.735Z,0
2023-05-05T02:13:17.000Z,0
2023-05-05T02:13:27.931Z,0
2023-05-05T02:14:43.878Z,0
2023-05-05T02:15:56.000Z,0
2023-05-05T02:17:12.000Z,0
2023-05-05T02:18:29.000Z,0
2023-05-05T02:20:59.000Z,0
2023-05-05T02:22:14.000Z,0
2023-05-05T02:23:30.000Z,0
2023-05-05T02:24:46.000Z,0
2023-05-05T02:26:02.000Z,0
2023-05-05T02:27:22.172Z,0
2023-05-05T02:28:34.000Z,0
2023-05-05T02:29:51.000Z,0
2023-05-05T02:31:07.000Z,0
2023-05-05T02:32:26.948Z,0
2023-05-05T02:33:39.000Z,0
2023-05-05T02:34:49.000Z,0
2023-05-05T02:34:55.000Z,0
2023-05-05T02:36:15.288Z,0
2023-05-05T02:37:28.000Z,0
2023-05-05T02:38:44.000Z,0
2023-05-05T02:40:03.138Z,0
2023-05-05T02:42:35.283Z,0
2023-05-05T02:43:48.000Z,0
2023-05-05T02:45:07.915Z,0
2023-05-05T02:46:20.000Z,0
2023-05-05T02:47:36.000Z,0
2023-05-05T02:48:51.000Z,0
2023-05-05T02:49:59.000Z,0
2023-05-05T02:50:10.499Z,0
2023-05-05T02:51:22.000Z,0
2023-05-05T02:52:40.932Z,0
2023-05-05T02:53:48.000Z,0
2023-05-05T02:53:53.000Z,0
2023-05-05T02:55:10.000Z,0
2023-05-05T02:57:42.000Z,0
2023-05-05T02:58:58.000Z,0
2023-05-05T03:01:30.000Z,0
2023-05-05T03:02:47.000Z,0
2023-05-05T03:04:06.938Z,0
2023-05-05T03:05:22.889Z,0
2023-05-05T03:06:35.000Z,0
2023-05-05T03:07:55.530Z,0
2023-05-05T03:09:07.000Z,0
2023-05-05T03:10:26.934Z,0
2023-05-05T03:11:42.883Z,0
2023-05-05T03:12:48.000Z,0
2023-05-05T03:12:59.079Z,0
2023-05-05T03:14:15.512Z,0
2023-05-05T03:15:31.726Z,0
2023-05-05T03:16:47.908Z,0
2023-05-05T03:17:59.000Z,0
2023-05-05T03:20:30.000Z,0
2023-05-05T03:21:45.000Z,0
2023-05-05T03:23:04.989Z,0
2023-05-05T03:24:17.000Z,0
2023-05-05T03:25:37.367Z,0
2023-05-05T03:26:50.000Z,0
2023-05-05T03:28:06.000Z,0
2023-05-05T03:29:22.000Z,4
2023-05-05T03:30:38.000Z,4
2023-05-05T03:31:54.000Z,4
2023-05-05T03:33:10.000Z,4
2023-05-05T03:34:30.741Z,4
2023-05-05T03:35:46.935Z,4
2023-05-05T03:36:59.000Z,8
2023-05-05T03:38:14.000Z,8
2023-05-05T03:39:34.536Z,8
2023-05-05T03:40:50.736Z,12
2023-05-05T03:42:03.000Z,16
2023-05-05T03:43:22.879Z,20
2023-05-05T03:44:35.000Z,24
2023-05-05T03:45:55.510Z,28
2023-05-05T03:47:07.000Z,32
2023-05-05T03:48:22.000Z,40
2023-05-05T03:49:37.000Z,52
2023-05-05T03:50:56.390Z,64
2023-05-05T03:52:09.000Z,72
2023-05-05T03:53:28.774Z,84
2023-05-05T03:54:44.967Z,100
2023-05-05T03:56:01.175Z,116
2023-05-05T03:57:13.000Z,128
2023-05-05T03:58:29.000Z,140
2023-05-05T03:59:46.000Z,152
2023-05-05T04:01:05.956Z,168
2023-05-05T04:02:18.000Z,184
2023-05-05T04:03:38.345Z,204
2023-05-05T04:04:50.000Z,220
2023-05-05T04:06:10.739Z,244
2023-05-05T04:07:25.951Z,268
2023-05-05T04:08:42.144Z,296
2023-05-05T04:09:54.000Z,328
2023-05-05T04:11:14.532Z,360
2023-05-05T04:12:27.000Z,396
2023-05-05T04:13:46.927Z,440
2023-05-05T04:14:59.000Z,476
2023-05-05T04:16:18.347Z,524
2023-05-05T04:17:29.000Z,588
2023-05-05T04:18:45.000Z,652
2023-05-05T04:20:00.000Z,724
2023-05-05T04:21:19.938Z,788
2023-05-05T04:22:32.000Z,840
2023-05-05T04:23:48.000Z,876
2023-05-05T04:25:05.000Z,920
2023-05-05T04:26:21.000Z,968
2023-05-05T04:27:31.000Z,1380
2023-05-05T04:27:37.000Z,1020
2023-05-05T04:28:57.113Z,1096
2023-05-05T04:30:09.000Z,1184
2023-05-05T04:31:29.753Z,1260
2023-05-05T04:32:42.000Z,1312
2023-05-05T04:35:14.000Z,1488
2023-05-05T04:36:29.000Z,1300
2023-05-05T04:37:46.000Z,1168
2023-05-05T04:39:02.000Z,1004
2023-05-05T04:40:18.000Z,900
2023-05-05T04:41:38.088Z,860
2023-05-05T04:42:50.000Z,880
2023-05-05T04:44:10.480Z,932
2023-05-05T04:45:22.000Z,952
2023-05-05T04:46:37.000Z,948
2023-05-05T04:47:53.000Z,964
2023-05-05T04:49:09.000Z,1020
2023-05-05T04:50:26.000Z,1112
2023-05-05T04:51:45.954Z,1236
2023-05-05T04:52:58.000Z,1412
2023-05-05T04:54:18.338Z,1572
2023-05-05T04:55:30.000Z,1708
2023-05-05T04:56:47.000Z,1776
2023-05-05T04:58:03.000Z,1792
2023-05-05T04:59:22.872Z,1888
2023-05-05T05:00:35.000Z,1960
2023-05-05T05:01:51.000Z,2108
2023-05-05T05:03:07.000Z,2256
2023-05-05T05:04:26.917Z,2452
2023-05-05T05:05:39.000Z,2596
2023-05-05T05:06:59.063Z,2696
2023-05-05T05:08:11.000Z,2964
2023-05-05T05:09:28.000Z,3236
2023-05-05T05:10:44.000Z,3084
2023-05-05T05:11:59.000Z,3080
2023-05-05T05:13:18.084Z,3056
2023-05-05T05:14:33.558Z,2880
2023-05-05T05:15:45.000Z,3016
2023-05-05T05:17:01.000Z,3560
2023-05-05T05:18:20.909Z,3728
2023-05-05T05:19:33.000Z,3504
2023-05-05T05:20:52.570Z,3280
2023-05-05T05:21:59.000Z,3268
2023-05-05T05:22:05.000Z,3172
2023-05-05T05:23:21.000Z,2896
2023-05-05T05:24:37.000Z,2796
2023-05-05T05:25:53.000Z,2996
2023-05-05T05:27:09.000Z,3108
2023-05-05T05:29:45.694Z,3296
2023-05-05T05:30:58.000Z,3264
2023-05-05T05:32:18.339Z,3284
2023-05-05T05:33:30.000Z,3232
2023-05-05T05:34:47.000Z,3384
2023-05-05T05:36:06.924Z,3416
2023-05-05T05:37:22.136Z,3516
2023-05-05T05:38:34.000Z,3728
2023-05-05T05:39:54.275Z,4008
2023-05-05T05:41:09.498Z,5124
2023-05-05T05:42:24.966Z,4248
2023-05-05T05:43:36.000Z,4244
2023-05-05T05:44:55.143Z,4188
2023-05-05T05:46:07.000Z,4844
2023-05-05T05:47:22.000Z,5212
2023-05-05T05:48:38.000Z,4632
2023-05-05T05:49:58.217Z,5600
2023-05-05T05:51:10.000Z,5512
2023-05-05T05:52:27.000Z,5808
2023-05-05T05:53:43.000Z,6020
2023-05-05T05:55:03.007Z,5752
2023-05-05T05:56:15.000Z,5340
2023-05-05T05:57:31.000Z,5240
2023-05-05T05:58:47.000Z,5324
2023-05-05T06:00:07.537Z,5328
2023-05-05T06:01:20.000Z,4992
2023-05-05T06:02:40.181Z,4388
2023-05-05T06:03:51.000Z,4384
2023-05-05T06:05:11.592Z,4296
2023-05-05T06:06:24.000Z,4280
2023-05-05T06:07:43.729Z,4292
2023-05-05T06:08:56.000Z,4192
2023-05-05T06:10:12.000Z,4096
2023-05-05T06:11:28.000Z,4176
2023-05-05T06:12:44.000Z,4288
2023-05-05T06:13:59.000Z,4488
2023-05-05T06:15:14.000Z,4788
2023-05-05T06:16:33.186Z,5284
2023-05-05T06:17:46.000Z,6008
2023-05-05T06:19:02.000Z,6424
2023-05-05T06:20:22.021Z,6244
2023-05-05T06:21:34.000Z,6124
2023-05-05T06:22:50.000Z,6172
2023-05-05T06:24:06.000Z,6204
2023-05-05T06:25:26.557Z,8112
2023-05-05T06:26:42.753Z,8860
2023-05-05T06:27:55.000Z,8412
2023-05-05T06:29:15.144Z,7392
2023-05-05T06:30:31.340Z,8720
2023-05-05T06:31:47.536Z,7892
2023-05-05T06:33:02.748Z,8644
2023-05-05T06:34:15.000Z,7124
2023-05-05T06:35:35.400Z,6368
2023-05-05T06:36:47.000Z,6288
2023-05-05T06:38:04.000Z,6380
2023-05-05T06:39:23.979Z,6304
2023-05-05T06:40:36.000Z,6224
2023-05-05T06:41:51.000Z,5968
2023-05-05T06:43:10.610Z,6112
2023-05-05T06:44:23.000Z,5964
2023-05-05T06:45:39.000Z,5900
2023-05-05T06:46:58.944Z,6212
2023-05-05T06:48:15.140Z,6488
2023-05-05T06:49:27.000Z,6868
2023-05-05T06:50:44.000Z,7252
2023-05-05T06:52:03.729Z,7452
2023-05-05T06:53:16.000Z,7604
2023-05-05T06:54:36.121Z,7240
2023-05-05T06:55:52.317Z,7540
2023-05-05T06:57:08.512Z,7760
2023-05-05T06:58:24.708Z,8104
2023-05-05T06:59:36.000Z,8180
2023-05-05T07:00:52.000Z,8596
2023-05-05T07:02:12.552Z,8288
2023-05-05T07:03:28.509Z,8304
2023-05-05T07:04:44.704Z,8412
2023-05-05T07:06:00.900Z,8148
2023-05-05T07:07:13.000Z,8456
2023-05-05T07:08:28.000Z,7944
2023-05-05T07:09:44.000Z,7848
2023-05-05T07:11:02.995Z,8172
2023-05-05T07:12:14.000Z,8264
2023-05-05T07:13:34.418Z,8244
2023-05-05T07:14:45.000Z,8344
2023-05-05T07:16:04.845Z,8176
2023-05-05T07:17:21.037Z,8032
2023-05-05T07:18:33.000Z,8256
2023-05-05T07:19:49.000Z,8140
2023-05-05T07:21:00.000Z,7392
2023-05-05T07:21:09.629Z,8040
2023-05-05T07:22:25.575Z,7960
2023-05-05T07:23:41.771Z,7632
2023-05-05T07:24:54.000Z,7432
2023-05-05T07:26:10.000Z,7176
2023-05-05T07:28:46.556Z,7272
2023-05-05T07:30:02.751Z,7604
2023-05-05T07:31:19.198Z,7992
2023-05-05T07:32:30.000Z,8576
2023-05-05T07:33:50.610Z,8844
2023-05-05T07:35:03.000Z,8912
2023-05-05T07:36:19.000Z,8972
2023-05-05T07:37:35.000Z,9044
2023-05-05T07:38:41.000Z,8420
2023-05-05T07:38:51.000Z,8952
2023-05-05T07:40:11.336Z,8732
2023-05-05T07:41:26.814Z,8252
2023-05-05T07:42:38.000Z,8160
2023-05-05T07:43:53.000Z,8356
2023-05-05T07:46:24.000Z,8128
2023-05-05T07:47:41.000Z,7972
2023-05-05T07:49:01.040Z,7672
2023-05-05T07:50:13.000Z,7584
2023-05-05T07:51:33.434Z,7748
2023-05-05T07:52:45.000Z,8160
2023-05-05T07:54:05.577Z,8240
2023-05-05T07:55:18.000Z,8056
2023-05-05T07:56:34.000Z,7924
2023-05-05T07:57:50.000Z,7956
2023-05-05T07:59:06.000Z,8016
2023-05-05T08:00:23.000Z,8060
2023-05-05T08:01:38.000Z,8436
2023-05-05T08:02:54.000Z,8884
2023-05-05T08:04:10.000Z,9132
2023-05-05T08:05:26.000Z,8724
2023-05-05T08:06:46.803Z,7356
2023-05-05T08:08:02.993Z,6836
2023-05-05T08:09:15.000Z,6896
2023-05-05T08:10:30.000Z,7140
2023-05-05T08:11:45.000Z,6992
2023-05-05T08:13:01.000Z,6888
2023-05-05T08:14:16.000Z,6948
2023-05-05T08:15:32.000Z,7384
2023-05-05T08:16:42.000Z,6928
2023-05-05T08:16:48.000Z,7252
2023-05-05T08:18:04.000Z,7332
2023-05-05T08:19:21.000Z,7536
2023-05-05T08:20:37.000Z,7668
2023-05-05T08:21:53.000Z,7000
2023-05-05T08:24:29.611Z,7000
2023-05-05T08:25:42.000Z,7196
2023-05-05T08:27:01.991Z,7528
2023-05-05T08:28:14.000Z,7720
2023-05-05T08:29:34.378Z,7800
2023-05-05T08:30:45.000Z,7644
2023-05-05T08:32:05.534Z,7608
2023-05-05T08:33:21.728Z,7884
2023-05-05T08:34:34.000Z,8588
2023-05-05T08:35:50.000Z,8816
2023-05-05T08:37:06.000Z,8664
2023-05-05T08:38:23.000Z,8532
2023-05-05T08:39:41.724Z,8232
2023-05-05T08:40:56.935Z,7856
2023-05-05T08:42:09.000Z,7360
2023-05-05T08:43:29.565Z,7400
2023-05-05T08:44:42.000Z,7244
2023-05-05T08:45:58.000Z,7464
2023-05-05T08:47:17.905Z,7660
2023-05-05T08:48:30.000Z,7520
2023-05-05T08:49:46.000Z,7932
2023-05-05T08:51:03.000Z,8208
2023-05-05T08:52:22.945Z,7996
2023-05-05T08:53:35.000Z,8788
2023-05-05T08:54:51.000Z,8748
2023-05-05T08:56:07.000Z,7932
2023-05-05T08:57:23.000Z,7584
2023-05-05T08:58:39.000Z,7320
2023-05-05T08:59:55.000Z,7672
2023-05-05T09:01:11.000Z,7860
2023-05-05T09:02:31.249Z,7704
2023-05-05T09:03:44.000Z,8180
2023-05-05T09:05:03.877Z,7616
2023-05-05T09:06:15.000Z,7608
2023-05-05T09:07:30.000Z,8272
2023-05-05T09:08:50.261Z,8220
2023-05-05T09:10:03.000Z,7792
2023-05-05T09:11:19.000Z,7488
2023-05-05T09:12:35.000Z,7732
2023-05-05T09:13:51.000Z,7804
2023-05-05T09:15:07.000Z,8060
2023-05-05T09:16:23.000Z,8068
2023-05-05T09:17:43.617Z,7720
2023-05-05T09:18:56.000Z,6676
2023-05-05T09:20:12.000Z,6224
2023-05-05T09:21:32.442Z,5576
2023-05-05T09:22:44.000Z,5280
2023-05-05T09:24:03.840Z,5564
2023-05-05T09:25:16.000Z,6224
2023-05-05T09:26:32.000Z,6692
2023-05-05T09:27:52.428Z,5868
2023-05-05T09:29:04.000Z,5052
2023-05-05T09:30:21.000Z,4512
2023-05-05T09:31:37.000Z,4744
2023-05-05T09:32:41.000Z,7024
2023-05-05T09:32:55.986Z,5832
2023-05-05T09:34:11.456Z,6464
2023-05-05T09:35:22.000Z,6384
2023-05-05T09:36:38.000Z,5952
2023-05-05T09:37:57.104Z,5488
2023-05-05T09:40:27.539Z,6900
2023-05-05T09:41:39.000Z,5976
2023-05-05T09:42:58.943Z,5792
2023-05-05T09:44:11.000Z,5932
2023-05-05T09:45:27.000Z,6080
2023-05-05T09:46:43.000Z,5972
2023-05-05T09:48:03.718Z,5596
2023-05-05T09:49:16.000Z,6036
2023-05-05T09:50:36.106Z,5928
2023-05-05T09:51:48.000Z,5424
2023-05-05T09:53:04.000Z,5636
2023-05-05T09:54:20.000Z,5456
2023-05-05T09:55:37.000Z,5524
2023-05-05T09:56:56.825Z,5212
2023-05-05T09:58:12.036Z,5548
2023-05-05T09:59:24.000Z,5972
2023-05-05T10:00:40.000Z,6880
2023-05-05T10:02:00.872Z,7152
2023-05-05T10:03:13.000Z,6980
2023-05-05T10:04:29.000Z,7176
2023-05-05T10:05:45.000Z,7832
2023-05-05T10:07:00.000Z,9268
2023-05-05T10:08:16.000Z,9940
2023-05-05T10:09:31.000Z,11244
2023-05-05T10:10:40.000Z,5812
2023-05-05T10:10:50.060Z,9388
2023-05-05T10:12:02.000Z,7428
2023-05-05T10:13:18.000Z,6772
2023-05-05T10:14:35.000Z,5560
2023-05-05T10:15:51.000Z,5960
2023-05-05T10:18:23.000Z,6020
2023-05-05T10:19:39.000Z,5992
2023-05-05T10:20:59.853Z,5956
2023-05-05T10:22:15.804Z,6452
2023-05-05T10:23:28.000Z,6956
2023-05-05T10:24:44.000Z,8432
2023-05-05T10:26:00.000Z,12252
2023-05-05T10:27:19.594Z,14272
2023-05-05T10:28:35.788Z,14052
2023-05-05T10:29:48.000Z,12568
2023-05-05T10:31:04.000Z,11592
2023-05-05T10:32:20.000Z,9496
2023-05-05T10:33:37.000Z,8172
2023-05-05T10:34:53.000Z,8052
2023-05-05T10:36:08.000Z,8436
2023-05-05T10:37:27.435Z,9240
2023-05-05T10:38:42.408Z,9968
2023-05-05T10:39:54.000Z,10152
2023-05-05T10:41:14.057Z,10312
2023-05-05T10:42:30.005Z,11336
2023-05-05T10:43:46.450Z,12568
2023-05-05T10:44:58.000Z,13632
2023-05-05T10:46:15.000Z,14476
2023-05-05T10:47:34.781Z,14720
2023-05-05T10:48:50.974Z,15128
2023-05-05T10:50:03.000Z,15200
2023-05-05T10:51:23.361Z,14816
2023-05-05T10:52:39.797Z,14488
2023-05-05T10:53:56.002Z,14176
2023-05-05T10:55:08.000Z,13024
2023-05-05T10:56:27.153Z,12904
2023-05-05T10:57:43.347Z,13708
2023-05-05T10:58:56.000Z,14388
2023-05-05T11:00:15.734Z,14592
2023-05-05T11:01:28.000Z,14832
2023-05-05T11:02:44.000Z,14860
2023-05-05T11:03:50.000Z,14016
2023-05-05T11:04:04.315Z,14884
2023-05-05T11:05:19.535Z,14652
2023-05-05T11:06:31.000Z,13936
2023-05-05T11:07:50.939Z,13324
2023-05-05T11:09:06.405Z,13328
2023-05-05T11:11:37.564Z,14900
2023-05-05T11:12:53.758Z,15600
2023-05-05T11:14:06.000Z,15800
2023-05-05T11:15:22.000Z,15172
2023-05-05T11:16:38.000Z,14424
2023-05-05T11:17:55.000Z,13920
2023-05-05T11:19:11.000Z,13696
2023-05-05T11:20:27.000Z,13312
2023-05-05T11:21:47.361Z,12808
2023-05-05T11:22:59.000Z,11516
2023-05-05T11:24:16.000Z,9392
2023-05-05T11:25:32.000Z,6152
2023-05-05T11:26:47.000Z,4036
2023-05-05T11:28:03.000Z,2992
2023-05-05T11:29:23.293Z,2404
2023-05-05T11:30:35.000Z,1972
2023-05-05T11:31:52.000Z,1908
2023-05-05T11:33:08.000Z,2376
2023-05-05T11:34:28.069Z,3960
2023-05-05T11:35:43.533Z,4604
2023-05-05T11:36:58.499Z,3492
2023-05-05T11:38:11.000Z,5360
2023-05-05T11:39:26.000Z,8244
2023-05-05T11:40:41.000Z,9768
2023-05-05T11:41:57.000Z,12336
2023-05-05T11:43:17.762Z,14208
2023-05-05T11:44:24.000Z,13756
2023-05-05T11:44:30.000Z,15776
2023-05-05T11:45:46.000Z,17152
2023-05-05T11:47:02.000Z,17344
2023-05-05T11:48:22.530Z,16608
2023-05-05T11:49:38.729Z,15296
2023-05-05T11:52:07.000Z,13000
2023-05-05T11:53:27.303Z,12152
2023-05-05T11:54:39.000Z,11328
2023-05-05T11:55:55.000Z,10192
2023-05-05T11:57:14.658Z,9980
2023-05-05T11:58:27.000Z,11608
2023-05-05T11:59:47.044Z,12284
2023-05-05T12:00:59.000Z,12116
2023-05-05T12:02:19.683Z,12284
2023-05-05T12:03:32.000Z,10796
2023-05-05T12:04:51.818Z,10316
2023-05-05T12:06:07.282Z,10324
2023-05-05T12:07:18.000Z,9080
2023-05-05T12:08:34.000Z,8056
2023-05-05T12:09:50.000Z,7860
2023-05-05T12:11:09.119Z,7716
2023-05-05T12:12:25.323Z,8292
2023-05-05T12:13:41.260Z,9096
2023-05-05T12:14:53.000Z,10216
2023-05-05T12:16:10.000Z,11588
2023-05-05T12:17:29.841Z,12580
2023-05-05T12:18:42.000Z,13288
2023-05-05T12:20:02.472Z,14328
2023-05-05T12:21:18.677Z,14220
2023-05-05T12:22:34.872Z,13796
2023-05-05T12:23:47.000Z,14388
2023-05-05T12:25:03.000Z,14740
2023-05-05T12:26:19.000Z,14968
2023-05-05T12:27:34.000Z,14488
2023-05-05T12:28:54.599Z,14312
2023-05-05T12:30:10.793Z,13924
2023-05-05T12:31:27.239Z,13648
2023-05-05T12:32:39.000Z,13548
2023-05-05T12:33:59.623Z,13488
2023-05-05T12:35:12.000Z,13172
2023-05-05T12:36:30.787Z,12900
2023-05-05T12:37:45.997Z,12828
2023-05-05T12:38:58.000Z,13100
2023-05-05T12:40:13.000Z,13532
2023-05-05T12:41:29.000Z,14016
2023-05-05T12:42:45.000Z,14100
2023-05-05T12:44:01.000Z,13976
2023-05-05T12:45:17.000Z,13620
2023-05-05T12:46:33.000Z,13116
2023-05-05T12:47:53.849Z,12676
2023-05-05T12:49:06.000Z,11976
2023-05-05T12:50:26.226Z,11744
2023-05-05T12:51:38.000Z,11868
2023-05-05T12:52:54.000Z,12136
2023-05-05T12:54:11.000Z,12680
2023-05-05T12:55:27.000Z,13084
2023-05-05T12:56:43.000Z,12128
2023-05-05T12:57:58.000Z,10876
2023-05-05T12:59:14.000Z,9516
2023-05-05T13:00:31.000Z,8700
2023-05-05T13:01:50.981Z,8860
2023-05-05T13:03:03.000Z,9216
2023-05-05T13:04:19.000Z,8264
2023-05-05T13:05:39.318Z,7572
2023-05-05T13:06:55.512Z,7564
2023-05-05T13:08:10.990Z,8340
2023-05-05T13:09:22.000Z,9528
2023-05-05T13:10:38.000Z,11540
2023-05-05T13:11:54.000Z,13256
2023-05-05T13:13:14.774Z,13948
2023-05-05T13:14:57.866Z,13364
2023-05-05T13:15:43.000Z,12244
2023-05-05T13:16:59.000Z,11152
2023-05-05T13:18:19.299Z,10640
2023-05-05T13:19:35.741Z,10488
2023-05-05T13:20:48.000Z,10120
2023-05-05T13:22:08.133Z,9580
2023-05-05T13:23:20.000Z,10044
2023-05-05T13:24:40.517Z,11200
2023-05-05T13:25:51.000Z,11084
2023-05-05T13:27:11.670Z,11200
2023-05-05T13:28:24.000Z,10656
2023-05-05T13:29:40.000Z,9988
2023-05-05T13:30:56.000Z,8232
2023-05-05T13:32:16.446Z,6164
2023-05-05T13:33:32.891Z,5684
2023-05-05T13:35:31.899Z,8128
2023-05-05T13:36:03.319Z,9088
2023-05-05T13:37:33.313Z,10168
2023-05-05T13:38:33.751Z,10812
2023-05-05T13:39:45.000Z,9692
2023-05-05T13:41:00.000Z,8660
2023-05-05T13:42:16.000Z,8068
2023-05-05T13:43:36.317Z,7812
2023-05-05T13:44:48.000Z,7780
2023-05-05T13:46:05.000Z,7836
2023-05-05T13:47:45.869Z,7940
2023-05-05T13:48:41.339Z,8100
2023-05-05T13:49:52.000Z,8292
2023-05-05T13:51:08.000Z,8548
2023-05-05T13:52:28.694Z,8632
2023-05-05T13:53:41.000Z,8336
2023-05-05T13:54:57.000Z,7768
2023-05-05T13:56:13.000Z,7272
2023-05-05T13:57:29.000Z,7092
2023-05-05T13:58:49.663Z,7200
2023-05-05T14:00:02.000Z,7420
2023-05-05T14:01:22.294Z,7712
2023-05-05T14:02:34.000Z,7788
2023-05-05T14:03:54.681Z,7788
2023-05-05T14:05:10.633Z,8148
2023-05-05T14:06:15.000Z,4488
2023-05-05T14:06:26.108Z,8692
2023-05-05T14:07:37.000Z,9228
2023-05-05T14:08:53.000Z,8944
2023-05-05T14:10:09.000Z,7420
2023-05-05T14:11:26.000Z,5440
2023-05-05T14:14:02.287Z,4552
2023-05-05T14:15:18.468Z,4756
2023-05-05T14:16:34.420Z,4496
2023-05-05T14:17:47.000Z,4368
2023-05-05T14:19:03.000Z,5032
2023-05-05T14:20:19.000Z,6944
2023-05-05T14:21:39.196Z,9476
2023-05-05T14:22:51.000Z,10856
2023-05-05T14:24:07.000Z,10892
2023-05-05T14:25:17.000Z,10396
2023-05-05T14:25:23.000Z,10460
2023-05-05T14:26:39.000Z,10700
2023-05-05T14:27:55.000Z,11368
2023-05-05T14:29:15.375Z,11528
2023-05-05T14:30:28.000Z,11092
2023-05-05T14:32:59.000Z,9944
2023-05-05T14:34:14.000Z,9720
2023-05-05T14:35:29.000Z,9500
2023-05-05T14:36:48.868Z,9564
2023-05-05T14:38:00.000Z,9784
2023-05-05T14:39:15.000Z,10024
2023-05-05T14:40:31.000Z,10736
2023-05-05T14:41:51.682Z,11580
2023-05-05T14:43:07.636Z,11880
2023-05-05T14:44:24.080Z,11664
2023-05-05T14:45:36.000Z,11244
2023-05-05T14:46:52.000Z,11256
2023-05-05T14:48:12.665Z,11084
2023-05-05T14:49:25.000Z,10424
2023-05-05T14:50:41.000Z,9716
2023-05-05T14:52:00.994Z,9060
2023-05-05T14:53:13.000Z,8252
2023-05-05T14:54:29.000Z,7340
2023-05-05T14:55:45.000Z,6208
2023-05-05T14:57:05.032Z,5404
2023-05-05T14:58:17.000Z,5368
2023-05-05T14:59:25.000Z,3548
2023-05-05T14:59:33.000Z,5672
2023-05-05T15:00:49.000Z,5176
2023-05-05T15:02:05.000Z,4480
2023-05-05T15:03:25.996Z,4196
2023-05-05T15:04:37.000Z,3940
2023-05-05T15:07:11.406Z,3496
2023-05-05T15:08:23.000Z,3476
2023-05-05T15:09:39.000Z,2988
2023-05-05T15:10:59.266Z,2264
2023-05-05T15:12:15.197Z,1844
2023-05-05T15:13:27.000Z,1728
2023-05-05T15:14:37.000Z,4120
2023-05-05T15:14:44.000Z,2144
2023-05-05T15:16:00.000Z,2456
2023-05-05T15:17:16.000Z,2768
2023-05-05T15:18:36.409Z,3612
2023-05-05T15:19:52.606Z,3968
2023-05-05T15:22:21.000Z,5480
2023-05-05T15:23:37.000Z,6392
2023-05-05T15:24:56.398Z,6004
2023-05-05T15:26:08.761Z,6100
2023-05-05T15:27:24.000Z,5460
2023-05-05T15:28:41.000Z,4424
2023-05-05T15:30:00.925Z,3520
2023-05-05T15:31:13.000Z,2992
2023-05-05T15:32:29.000Z,2916
2023-05-05T15:33:44.000Z,2340
2023-05-05T15:35:00.000Z,1512
2023-05-05T15:36:20.197Z,1080
2023-05-05T15:37:36.367Z,840
2023-05-05T15:38:52.575Z,808
2023-05-05T15:40:04.000Z,832
2023-05-05T15:41:21.000Z,864
2023-05-05T15:42:37.000Z,932
2023-05-05T15:43:53.000Z,936
2023-05-05T15:45:09.000Z,1492
2023-05-05T15:46:25.000Z,2496
2023-05-05T15:47:35.000Z,2252
2023-05-05T15:47:42.000Z,2760
2023-05-05T15:48:58.000Z,2288
2023-05-05T15:50:14.000Z,2100
2023-05-05T15:51:29.000Z,2072
2023-05-05T15:52:49.470Z,2192
2023-05-05T15:55:18.000Z,2212
2023-05-05T15:56:34.000Z,2904
2023-05-05T15:57:54.490Z,3360
2023-05-05T15:59:10.680Z,3336
2023-05-05T16:00:25.659Z,3252
2023-05-05T16:01:37.000Z,3000
2023-05-05T16:02:57.315Z,2892
2023-05-05T16:04:13.522Z,3032
2023-05-05T16:05:25.000Z,3268
2023-05-05T16:06:42.000Z,3500
2023-05-05T16:08:02.081Z,3820
2023-05-05T16:09:18.290Z,3992
2023-05-05T16:10:34.477Z,4152
2023-05-05T16:11:46.000Z,4364
2023-05-05T16:13:03.000Z,5284
2023-05-05T16:14:19.000Z,6960
2023-05-05T16:15:39.243Z,8444
2023-05-05T16:16:51.000Z,8308
2023-05-05T16:18:06.000Z,7472
2023-05-05T16:19:22.000Z,8280
2023-05-05T16:20:39.000Z,8616
2023-05-05T16:21:55.000Z,7664
2023-05-05T16:23:11.000Z,6620
2023-05-05T16:24:27.000Z,5780
2023-05-05T16:25:43.000Z,5528
2023-05-05T16:26:59.000Z,4676
2023-05-05T16:28:14.000Z,4312
2023-05-05T16:29:33.216Z,4868
2023-05-05T16:30:48.426Z,5104
2023-05-05T16:32:03.898Z,4988
2023-05-05T16:33:15.000Z,4960
2023-05-05T16:34:35.050Z,4344
2023-05-05T16:35:51.491Z,3784
2023-05-05T16:36:57.000Z,3068
2023-05-05T16:37:03.000Z,3448
2023-05-05T16:38:23.878Z,3476
2023-05-05T16:39:40.079Z,3236
2023-05-05T16:40:46.000Z,4160
2023-05-05T16:40:52.000Z,2988
2023-05-05T16:42:02.000Z,4360
2023-05-05T16:42:08.000Z,2700
2023-05-05T16:44:40.000Z,4056
2023-05-05T16:46:01.039Z,4284
2023-05-05T16:49:44.000Z,4572
2023-05-05T16:51:00.000Z,4316
2023-05-05T16:52:21.019Z,3752
2023-05-05T16:53:37.215Z,3216
2023-05-05T16:54:49.000Z,3392
2023-05-05T16:56:09.358Z,3608
2023-05-05T16:57:21.000Z,3412
2023-05-05T16:58:37.000Z,3320
2023-05-05T16:59:52.000Z,3480
2023-05-05T17:01:11.454Z,3800
2023-05-05T17:02:22.000Z,3948
2023-05-05T17:03:38.000Z,3828
2023-05-05T17:04:55.000Z,3440
2023-05-05T17:06:15.247Z,2900
2023-05-05T17:07:27.000Z,2628
2023-05-05T17:08:47.381Z,3028
2023-05-05T17:09:59.000Z,3320